Time;durP1;ratioP1;P1;durP2;ratioP2;P2;SDS_P1;SDS_P2;PMS_P1;PMS_P2;Temp;Humidity;BMP_temperature;BMP_pressure;BME280_temperature;BME280_humidity;BME280_pressure;Samples;Min_cycle;Max_cycle;Signal;HPM_P1;HPM_P2
2023/01/28 00:01:38;;;;;;;;;;;2.70;99.90;;;;;;5075444;28;19916;-81
2023/01/28 00:04:03;;;;;;;;;;;2.70;99.90;;;;;;5073260;28;19959;-81
2023/01/28 00:06:29;;;;;;;;;;;2.70;99.90;;;;;;5072686;28;20383;-82
2023/01/28 00:08:54;;;;;;;;;;;2.80;99.90;;;;;;5074246;28;19947;-83
2023/01/28 00:11:21;;;;;;;;;;;2.80;99.90;;;;;;5074207;28;20259;-83
2023/01/28 00:13:51;;;;;;;;;;;2.70;99.90;;;;;;5076445;28;19908;-83
2023/01/28 00:16:17;;;;;;;;;;;2.70;99.90;;;;;;5074709;28;19935;-82
2023/01/28 00:18:42;;;;;;;;;;;2.70;99.90;;;;;;5076303;28;19905;-80
2023/01/28 00:21:12;;;;;;;;;;;2.70;99.90;;;;;;5075314;28;19935;-82
2023/01/28 00:23:38;;;;;;;;;;;2.70;99.90;;;;;;5075496;28;20016;-82
2023/01/28 00:26:05;;;;;;;;;;;2.70;99.90;;;;;;5075503;28;20269;-82
2023/01/28 00:28:31;;;;;;;;;;;2.70;99.90;;;;;;5071969;28;19917;-82
2023/01/28 00:30:57;;;;;;;;;;;2.60;99.90;;;;;;5075366;28;19958;-83
2023/01/28 00:33:22;;;;;;;;;;;2.70;99.90;;;;;;5064644;28;19927;-82
2023/01/28 00:35:56;;;;;;;;;;;2.70;99.90;;;;;;5072031;28;19916;-83
2023/01/28 00:38:22;;;;;;;;;;;2.60;99.90;;;;;;5073842;28;19916;-81
2023/01/28 00:40:47;;;;;;;;;;;2.60;99.90;;;;;;5076625;28;19908;-83
2023/01/28 00:43:13;;;;;;;;;;;2.60;99.90;;;;;;5066435;28;19908;-81
2023/01/28 00:45:38;;;;;;;;;;;2.60;99.90;;;;;;5043853;28;20219;-83
2023/01/28 00:48:05;;;;;;;;;;;2.70;99.90;;;;;;5075755;28;19908;-83
2023/01/28 00:50:31;;;;;;;;;;;2.60;99.90;;;;;;5068067;28;20423;-82
2023/01/28 00:52:56;;;;;;;;;;;2.60;99.90;;;;;;5073239;28;20038;-82
2023/01/28 00:55:22;;;;;;;;;;;2.60;99.90;;;;;;5065360;28;19912;-80
2023/01/28 00:57:47;;;;;;;;;;;2.60;99.90;;;;;;5076498;28;19912;-83
2023/01/28 01:00:13;;;;;;;;;;;2.60;99.90;;;;;;5068926;28;19961;-82
2023/01/28 01:02:39;;;;;;;;;;;2.60;99.90;;;;;;5069223;28;19915;-82
2023/01/28 01:05:05;;;;;;;;;;;2.60;99.90;;;;;;5070017;28;19914;-82
2023/01/28 01:07:42;;;;;;;;;;;2.70;99.90;;;;;;5071019;28;19920;-83
2023/01/28 01:10:08;;;;;;;;;;;2.70;99.90;;;;;;5069252;28;20025;-83
2023/01/28 01:12:33;;;;;;;;;;;2.60;99.90;;;;;;5066211;28;20318;-82
2023/01/28 01:14:59;;;;;;;;;;;2.60;99.90;;;;;;5061362;28;19916;-84
2023/01/28 01:17:24;;;;;;;;;;;2.60;99.90;;;;;;5071007;28;19920;-83
2023/01/28 01:19:50;;;;;;;;;;;2.70;99.90;;;;;;5071204;28;20203;-82
2023/01/28 01:22:16;;;;;;;;;;;2.80;99.90;;;;;;5074548;28;19908;-82
2023/01/28 01:24:41;;;;;;;;;;;2.70;99.90;;;;;;5073855;28;19919;-82
2023/01/28 01:27:07;;;;;;;;;;;2.70;99.90;;;;;;5075303;28;19912;-80
2023/01/28 01:29:35;;;;;;;;;;;2.70;99.90;;;;;;5067350;28;19919;-82
2023/01/28 01:32:01;;;;;;;;;;;2.70;99.90;;;;;;5074025;28;20310;-81
2023/01/28 01:34:26;;;;;;;;;;;2.70;99.90;;;;;;5070843;28;19927;-80
2023/01/28 01:36:52;;;;;;;;;;;2.70;99.90;;;;;;5069794;28;19923;-79
2023/01/28 01:39:17;;;;;;;;;;;2.70;99.90;;;;;;5064169;28;20011;-82
2023/01/28 01:41:44;;;;;;;;;;;2.70;99.90;;;;;;5064661;28;19912;-82
2023/01/28 01:44:29;;;;;;;;;;;2.70;99.90;;;;;;5068539;28;19909;-83
2023/01/28 01:46:54;;;;;;;;;;;2.60;99.90;;;;;;5065852;28;19912;-82
2023/01/28 01:49:22;;;;;;;;;;;2.60;99.90;;;;;;5057949;28;19912;-82
2023/01/28 01:51:50;;;;;;;;;;;2.60;99.90;;;;;;5065261;28;19962;-82
2023/01/28 01:54:17;;;;;;;;;;;2.60;99.90;;;;;;5073244;28;20306;-82
2023/01/28 01:56:43;;;;;;;;;;;2.60;99.90;;;;;;5066035;28;19962;-81
2023/01/28 01:59:11;;;;;;;;;;;2.70;99.90;;;;;;5067534;28;20007;-82
2023/01/28 02:01:36;;;;;;;;;;;2.70;99.90;;;;;;5074109;28;19922;-83
2023/01/28 02:04:02;;;;;;;;;;;2.60;99.90;;;;;;5070130;28;20006;-80
2023/01/28 02:06:27;;;;;;;;;;;2.60;99.90;;;;;;5070795;28;19916;-82
2023/01/28 02:08:54;;;;;;;;;;;2.60;99.90;;;;;;5060670;28;19986;-82
2023/01/28 02:11:20;;;;;;;;;;;2.60;99.90;;;;;;5069572;28;19912;-82
2023/01/28 02:13:48;;;;;;;;;;;2.60;99.90;;;;;;5072221;28;19913;-83
2023/01/28 02:16:13;;;;;;;;;;;2.60;99.90;;;;;;5068858;28;19915;-83
2023/01/28 02:18:39;;;;;;;;;;;2.60;99.90;;;;;;5069236;28;19908;-83
2023/01/28 02:21:23;;;;;;;;;;;2.60;99.90;;;;;;5070668;28;19909;-82
2023/01/28 02:24:07;;;;;;;;;;;2.60;99.90;;;;;;5068117;28;19908;-84
2023/01/28 02:26:51;;;;;;;;;;;2.60;99.90;;;;;;5072245;28;19965;-83
2023/01/28 02:29:24;;;;;;;;;;;2.60;99.90;;;;;;5071865;28;19912;-83
2023/01/28 02:31:53;;;;;;;;;;;2.60;99.90;;;;;;5077428;28;19908;-83
2023/01/28 02:34:30;;;;;;;;;;;2.50;99.90;;;;;;5075653;28;19999;-82
2023/01/28 02:37:03;;;;;;;;;;;2.50;99.90;;;;;;5071672;28;19912;-81
2023/01/28 02:39:30;;;;;;;;;;;2.60;99.90;;;;;;5069924;28;19934;-83
2023/01/28 02:42:12;;;;;;;;;;;2.60;99.90;;;;;;5071723;28;19999;-81
2023/01/28 02:44:38;;;;;;;;;;;2.60;99.90;;;;;;5073849;28;19987;-81
2023/01/28 02:49:53;;;;;;;;;;;2.50;99.90;;;;;;5071670;28;19965;-81
2023/01/28 02:52:19;;;;;;;;;;;2.50;99.90;;;;;;5064175;28;19985;-81
2023/01/28 02:55:00;;;;;;;;;;;2.50;99.90;;;;;;5076614;28;20290;-81
2023/01/28 02:57:37;;;;;;;;;;;2.50;99.90;;;;;;5069308;28;20319;-82
2023/01/28 03:00:03;;;;;;;;;;;2.40;99.90;;;;;;5062240;28;19983;-82
2023/01/28 03:02:31;;;;;;;;;;;2.40;99.90;;;;;;5076361;28;19920;-83
2023/01/28 03:05:11;;;;;;;;;;;2.50;99.90;;;;;;5076410;28;19912;-83
2023/01/28 03:07:37;;;;;;;;;;;2.50;99.90;;;;;;5071550;28;19913;-84
2023/01/28 03:10:06;;;;;;;;;;;2.50;99.90;;;;;;5077873;28;19926;-82
2023/01/28 03:38:17;;;;;;;;;;;2.40;99.90;;;;;;5067704;28;19915;-70
2023/01/28 03:40:54;;;;;;;;;;;2.40;99.90;;;;;;5065448;28;19923;-74
2023/01/28 03:43:19;;;;;;;;;;;2.40;99.90;;;;;;5071102;28;19908;-77
2023/01/28 03:45:50;;;;;;;;;;;2.40;99.90;;;;;;5074670;28;19915;-70
2023/01/28 03:48:19;;;;;;;;;;;2.30;99.90;;;;;;5072812;28;19995;-74
2023/01/28 03:50:45;;;;;;;;;;;2.40;99.90;;;;;;5073367;28;19908;-71
2023/01/28 03:53:14;;;;;;;;;;;2.40;99.90;;;;;;5075981;28;19922;-76
2023/01/28 03:55:43;;;;;;;;;;;2.30;99.90;;;;;;5068125;28;19908;-78
2023/01/28 03:58:10;;;;;;;;;;;2.30;99.90;;;;;;5066059;28;19909;-71
2023/01/28 04:00:41;;;;;;;;;;;2.20;99.90;;;;;;5063026;28;19917;-75
2023/01/28 04:03:16;;;;;;;;;;;2.20;99.90;;;;;;5067608;28;20014;-75
2023/01/28 04:05:42;;;;;;;;;;;2.30;99.90;;;;;;5074148;28;19917;-69
2023/01/28 04:08:08;;;;;;;;;;;2.30;99.90;;;;;;5071471;28;20268;-76
2023/01/28 04:10:34;;;;;;;;;;;2.40;99.90;;;;;;5072389;28;19944;-75
2023/01/28 04:12:59;;;;;;;;;;;2.40;99.90;;;;;;5074847;28;19912;-80
2023/01/28 04:15:25;;;;;;;;;;;2.50;99.90;;;;;;5072161;28;20210;-78
2023/01/28 04:17:50;;;;;;;;;;;2.50;99.90;;;;;;5074938;28;19908;-69
2023/01/28 04:20:16;;;;;;;;;;;2.40;99.90;;;;;;5063784;28;19947;-69
2023/01/28 04:22:42;;;;;;;;;;;2.30;99.90;;;;;;5070732;28;20450;-77
2023/01/28 04:25:08;;;;;;;;;;;2.30;99.90;;;;;;5075671;28;20291;-71
2023/01/28 04:27:33;;;;;;;;;;;2.20;99.90;;;;;;5068764;28;19962;-75
2023/01/28 04:29:59;;;;;;;;;;;2.20;99.90;;;;;;5068411;28;20303;-71
2023/01/28 04:32:24;;;;;;;;;;;2.30;99.90;;;;;;5072042;28;19919;-73
2023/01/28 04:34:50;;;;;;;;;;;2.30;99.90;;;;;;5073879;28;19940;-72
2023/01/28 04:37:15;;;;;;;;;;;2.30;99.90;;;;;;5063997;28;19916;-75
2023/01/28 04:39:41;;;;;;;;;;;2.30;99.90;;;;;;5067749;28;19909;-79
2023/01/28 04:42:06;;;;;;;;;;;2.30;99.90;;;;;;5066017;28;19913;-73
2023/01/28 04:44:32;;;;;;;;;;;2.30;99.90;;;;;;5074164;28;19912;-69
2023/01/28 04:46:57;;;;;;;;;;;2.30;99.90;;;;;;5075385;28;19939;-80
2023/01/28 04:49:23;;;;;;;;;;;2.30;99.90;;;;;;5072274;28;20409;-80
2023/01/28 04:51:48;;;;;;;;;;;2.30;99.90;;;;;;5075642;28;20322;-70
2023/01/28 04:54:14;;;;;;;;;;;2.30;99.90;;;;;;5075052;28;19904;-74
2023/01/28 04:56:39;;;;;;;;;;;2.40;99.90;;;;;;5073733;28;19908;-73
2023/01/28 04:59:05;;;;;;;;;;;2.40;99.90;;;;;;5065823;28;19920;-73
2023/01/28 05:01:30;;;;;;;;;;;2.40;99.90;;;;;;5069627;28;20360;-75
2023/01/28 05:03:56;;;;;;;;;;;2.30;99.90;;;;;;5061694;28;19916;-67
2023/01/28 05:06:22;;;;;;;;;;;2.30;99.90;;;;;;5065926;28;19924;-70
2023/01/28 05:08:48;;;;;;;;;;;2.30;99.90;;;;;;5074494;28;20275;-72
2023/01/28 05:11:15;;;;;;;;;;;2.20;99.90;;;;;;5073200;28;19921;-74
2023/01/28 05:13:40;;;;;;;;;;;2.20;99.90;;;;;;5066925;28;19931;-70
2023/01/28 05:16:06;;;;;;;;;;;2.20;99.90;;;;;;5070783;28;19912;-69
2023/01/28 05:18:31;;;;;;;;;;;2.20;99.90;;;;;;5074884;28;19908;-72
2023/01/28 05:20:57;;;;;;;;;;;2.20;99.90;;;;;;5063317;28;19919;-78
2023/01/28 05:23:23;;;;;;;;;;;2.10;99.90;;;;;;5071304;28;19917;-74
2023/01/28 05:25:48;;;;;;;;;;;2.10;99.90;;;;;;5074507;28;20003;-77
2023/01/28 05:28:14;;;;;;;;;;;2.20;99.90;;;;;;5071232;28;20265;-77
2023/01/28 05:30:40;;;;;;;;;;;2.10;99.90;;;;;;5067405;28;19909;-75
2023/01/28 05:33:05;;;;;;;;;;;2.30;99.90;;;;;;5070014;28;19936;-70
2023/01/28 05:35:31;;;;;;;;;;;2.30;99.90;;;;;;5072194;28;19917;-81
2023/01/28 05:37:56;;;;;;;;;;;2.30;99.90;;;;;;5071285;28;19916;-68
2023/01/28 05:40:22;;;;;;;;;;;2.20;99.90;;;;;;5070608;28;19916;-71
2023/01/28 05:42:48;;;;;;;;;;;2.20;99.90;;;;;;5066719;28;19908;-74
2023/01/28 05:45:13;;;;;;;;;;;2.20;99.90;;;;;;5075123;28;19904;-70
2023/01/28 05:47:39;;;;;;;;;;;2.20;99.90;;;;;;5073758;28;19912;-75
2023/01/28 05:50:05;;;;;;;;;;;2.10;99.90;;;;;;5070927;28;19913;-69
2023/01/28 05:52:30;;;;;;;;;;;2.10;99.90;;;;;;5070911;28;19908;-70
2023/01/28 05:54:56;;;;;;;;;;;2.10;99.90;;;;;;5073652;28;20307;-75
2023/01/28 05:57:22;;;;;;;;;;;2.00;99.90;;;;;;5071328;28;19916;-78
2023/01/28 05:59:47;;;;;;;;;;;2.10;99.90;;;;;;5072371;28;19916;-76
2023/01/28 06:02:13;;;;;;;;;;;2.10;99.90;;;;;;5073898;28;20302;-72
2023/01/28 06:04:38;;;;;;;;;;;2.20;99.90;;;;;;5058450;28;19978;-69
2023/01/28 06:07:04;;;;;;;;;;;2.10;99.90;;;;;;5061380;28;20048;-72
2023/01/28 06:09:30;;;;;;;;;;;2.10;99.90;;;;;;5071464;28;19972;-71
2023/01/28 06:11:55;;;;;;;;;;;2.10;99.90;;;;;;5065377;28;19909;-69
2023/01/28 06:14:21;;;;;;;;;;;2.10;99.90;;;;;;5072470;28;19916;-68
2023/01/28 06:16:46;;;;;;;;;;;2.20;99.90;;;;;;5070903;28;20601;-77
2023/01/28 06:19:12;;;;;;;;;;;2.10;99.90;;;;;;5059520;28;20008;-78
2023/01/28 06:21:37;;;;;;;;;;;2.10;99.90;;;;;;5074093;28;19944;-76
2023/01/28 06:24:03;;;;;;;;;;;2.10;99.90;;;;;;5066565;28;19950;-80
2023/01/28 06:26:29;;;;;;;;;;;2.10;99.90;;;;;;5048028;28;20261;-75
2023/01/28 06:28:55;;;;;;;;;;;2.10;99.90;;;;;;5069563;28;19939;-73
2023/01/28 06:31:20;;;;;;;;;;;2.10;99.90;;;;;;5072721;28;20309;-79
2023/01/28 06:33:46;;;;;;;;;;;2.10;99.90;;;;;;5071242;28;19991;-71
2023/01/28 06:36:11;;;;;;;;;;;2.10;99.90;;;;;;5069941;28;19947;-69
2023/01/28 06:38:37;;;;;;;;;;;2.10;99.90;;;;;;5067971;28;19961;-69
2023/01/28 06:41:02;;;;;;;;;;;2.00;99.90;;;;;;5066146;28;19908;-77
2023/01/28 06:43:29;;;;;;;;;;;2.00;99.90;;;;;;5063101;28;19916;-81
2023/01/28 06:45:55;;;;;;;;;;;2.00;99.90;;;;;;5066052;28;20638;-73
2023/01/28 06:48:21;;;;;;;;;;;2.00;99.90;;;;;;5069154;28;19995;-68
2023/01/28 06:50:47;;;;;;;;;;;2.00;99.90;;;;;;5065423;28;20054;-69
2023/01/28 06:53:13;;;;;;;;;;;2.00;99.90;;;;;;5064841;28;19916;-70
2023/01/28 06:55:38;;;;;;;;;;;2.00;99.90;;;;;;5065084;28;19912;-68
2023/01/28 06:58:04;;;;;;;;;;;2.00;99.90;;;;;;5063624;28;20034;-69
2023/01/28 07:00:29;;;;;;;;;;;2.00;99.90;;;;;;5061681;28;20018;-71
2023/01/28 07:02:55;;;;;;;;;;;2.00;99.90;;;;;;5065628;28;19908;-80
2023/01/28 07:05:21;;;;;;;;;;;2.00;99.90;;;;;;5071667;28;20580;-69
2023/01/28 07:07:47;;;;;;;;;;;2.00;99.90;;;;;;5054176;28;19917;-75
2023/01/28 07:10:12;;;;;;;;;;;2.00;99.90;;;;;;5058220;28;19908;-75
2023/01/28 07:12:38;;;;;;;;;;;2.00;99.90;;;;;;5071035;28;20214;-70
2023/01/28 07:15:04;;;;;;;;;;;2.00;99.90;;;;;;5070185;28;19952;-73
2023/01/28 07:17:29;;;;;;;;;;;2.00;99.90;;;;;;5064110;28;19999;-69
2023/01/28 07:19:55;;;;;;;;;;;2.00;99.90;;;;;;5066343;28;19908;-70
2023/01/28 07:22:20;;;;;;;;;;;2.00;99.90;;;;;;5063306;28;19917;-75
2023/01/28 07:24:46;;;;;;;;;;;2.00;99.90;;;;;;5070059;28;19936;-79
2023/01/28 07:27:12;;;;;;;;;;;2.00;99.90;;;;;;5069462;28;20019;-69
2023/01/28 07:29:37;;;;;;;;;;;2.00;99.90;;;;;;5077520;28;19951;-68
2023/01/28 07:32:05;;;;;;;;;;;2.00;99.90;;;;;;5070988;28;20583;-76
2023/01/28 07:34:31;;;;;;;;;;;2.00;99.90;;;;;;5075822;28;19908;-72
2023/01/28 07:36:57;;;;;;;;;;;2.10;99.90;;;;;;5075224;28;19973;-75
2023/01/28 07:39:23;;;;;;;;;;;2.10;99.90;;;;;;5073247;28;19909;-71
2023/01/28 07:41:48;;;;;;;;;;;2.10;99.90;;;;;;5067209;28;20300;-77
2023/01/28 07:44:14;;;;;;;;;;;2.10;99.90;;;;;;5076238;28;19977;-69
2023/01/28 07:46:39;;;;;;;;;;;2.00;99.90;;;;;;5075279;28;19913;-80
2023/01/28 07:49:05;;;;;;;;;;;2.00;99.90;;;;;;5072510;28;19987;-70
2023/01/28 07:51:30;;;;;;;;;;;2.00;99.90;;;;;;5075901;28;19916;-68
2023/01/28 07:53:56;;;;;;;;;;;2.00;99.90;;;;;;5071856;28;19916;-69
2023/01/28 07:56:22;;;;;;;;;;;2.10;99.90;;;;;;5066450;28;19917;-77
2023/01/28 07:58:50;;;;;;;;;;;2.10;99.90;;;;;;5071929;28;20223;-69
2023/01/28 08:01:17;;;;;;;;;;;2.00;99.90;;;;;;5068096;28;19916;-73
2023/01/28 08:03:42;;;;;;;;;;;2.00;99.90;;;;;;5066608;28;19998;-67
2023/01/28 08:06:08;;;;;;;;;;;2.00;99.90;;;;;;5067269;28;19950;-69
2023/01/28 08:08:33;;;;;;;;;;;2.10;99.90;;;;;;5069653;28;19912;-71
2023/01/28 08:11:05;;;;;;;;;;;2.00;99.90;;;;;;5058175;28;20281;-67
2023/01/28 08:13:30;;;;;;;;;;;2.10;99.90;;;;;;5056122;28;19908;-74
2023/01/28 08:15:56;;;;;;;;;;;2.10;99.90;;;;;;5068230;28;20675;-70
2023/01/28 08:18:21;;;;;;;;;;;2.20;99.90;;;;;;5067320;28;19916;-72
2023/01/28 08:20:47;;;;;;;;;;;2.10;99.90;;;;;;5072362;28;19920;-69
2023/01/28 08:23:17;;;;;;;;;;;2.10;99.90;;;;;;5064839;28;19914;-72
2023/01/28 08:25:43;;;;;;;;;;;2.20;99.90;;;;;;5067652;28;19978;-72
2023/01/28 08:28:09;;;;;;;;;;;2.20;99.90;;;;;;5070929;28;19912;-71
2023/01/28 08:30:36;;;;;;;;;;;2.10;99.90;;;;;;5067358;28;20180;-70
2023/01/28 08:33:03;;;;;;;;;;;2.10;99.90;;;;;;5061905;28;19916;-78
2023/01/28 08:35:29;;;;;;;;;;;2.20;99.90;;;;;;5063020;28;19958;-74
2023/01/28 08:37:54;;;;;;;;;;;2.30;99.90;;;;;;5066096;28;19908;-79
2023/01/28 08:40:20;;;;;;;;;;;2.30;99.90;;;;;;5065444;28;20306;-73
2023/01/28 08:42:49;;;;;;;;;;;2.40;99.90;;;;;;5067876;28;19920;-69
2023/01/28 08:45:15;;;;;;;;;;;2.50;99.90;;;;;;5070254;28;20015;-74
2023/01/28 08:47:50;;;;;;;;;;;2.50;99.90;;;;;;5072524;28;20019;-74
2023/01/28 08:50:17;;;;;;;;;;;2.50;99.90;;;;;;5067042;28;19944;-78
2023/01/28 08:52:43;;;;;;;;;;;2.40;99.90;;;;;;5075876;28;19908;-79
2023/01/28 08:55:09;;;;;;;;;;;2.40;99.90;;;;;;5070854;28;19908;-68
2023/01/28 08:57:35;;;;;;;;;;;2.40;99.90;;;;;;5063057;28;19908;-74
2023/01/28 09:00:01;;;;;;;;;;;2.40;99.90;;;;;;5071411;28;19969;-69
2023/01/28 09:02:26;;;;;;;;;;;2.40;99.90;;;;;;5073718;28;19916;-71
2023/01/28 09:04:52;;;;;;;;;;;2.40;99.90;;;;;;5068236;28;20310;-73
2023/01/28 09:07:17;;;;;;;;;;;2.50;99.90;;;;;;5070398;28;19912;-68
2023/01/28 09:09:43;;;;;;;;;;;2.60;99.90;;;;;;5073760;28;19912;-75
2023/01/28 09:12:09;;;;;;;;;;;2.70;99.90;;;;;;5065989;28;20389;-67
2023/01/28 09:14:35;;;;;;;;;;;2.80;99.90;;;;;;5073574;28;19969;-72
2023/01/28 09:17:01;;;;;;;;;;;2.90;99.90;;;;;;5073243;28;19990;-73
2023/01/28 09:19:28;;;;;;;;;;;3.00;99.90;;;;;;5063680;28;19908;-74
2023/01/28 09:21:53;;;;;;;;;;;3.20;99.90;;;;;;5065302;28;20253;-77
2023/01/28 09:24:19;;;;;;;;;;;3.30;99.90;;;;;;5075063;28;19912;-70
2023/01/28 09:26:47;;;;;;;;;;;3.40;99.90;;;;;;5072357;28;20295;-76
2023/01/28 09:29:12;;;;;;;;;;;3.40;99.90;;;;;;5056583;28;20279;-74
2023/01/28 09:31:38;;;;;;;;;;;3.40;99.90;;;;;;5071438;28;19992;-73
2023/01/28 09:34:04;;;;;;;;;;;3.40;99.90;;;;;;5074579;28;19904;-71
2023/01/28 09:36:30;;;;;;;;;;;3.30;99.90;;;;;;5075540;28;19962;-68
2023/01/28 09:38:55;;;;;;;;;;;3.40;99.90;;;;;;5069812;28;19909;-69
2023/01/28 09:41:24;;;;;;;;;;;3.40;99.90;;;;;;5065853;28;19916;-71
2023/01/28 09:43:56;;;;;;;;;;;3.40;99.90;;;;;;5070827;28;19916;-69
2023/01/28 09:46:28;;;;;;;;;;;3.30;99.90;;;;;;5070314;28;19935;-69
2023/01/28 09:48:54;;;;;;;;;;;3.30;99.90;;;;;;5065814;28;19977;-70
2023/01/28 09:51:38;;;;;;;;;;;3.20;99.90;;;;;;5065990;28;20242;-71
2023/01/28 09:54:10;;;;;;;;;;;3.30;99.90;;;;;;5068058;28;19915;-70
2023/01/28 09:56:40;;;;;;;;;;;3.30;99.90;;;;;;5062348;28;19962;-76
2023/01/28 09:59:16;;;;;;;;;;;3.30;99.90;;;;;;5066145;28;19931;-67
2023/01/28 10:01:45;;;;;;;;;;;3.40;99.90;;;;;;5066507;28;19924;-69
2023/01/28 10:04:10;;;;;;;;;;;3.50;99.90;;;;;;5064499;28;19911;-67
2023/01/28 10:06:48;;;;;;;;;;;3.50;99.90;;;;;;5066982;28;19912;-67
2023/01/28 10:09:19;;;;;;;;;;;3.50;99.90;;;;;;5065985;28;20320;-67
2023/01/28 10:12:03;;;;;;;;;;;3.60;99.90;;;;;;5069287;28;19912;-68
2023/01/28 10:14:35;;;;;;;;;;;3.60;99.90;;;;;;5069962;28;19951;-71
2023/01/28 10:17:00;;;;;;;;;;;3.60;99.90;;;;;;5071497;28;19915;-68
2023/01/28 10:19:29;;;;;;;;;;;3.70;99.90;;;;;;5059599;28;19916;-67
2023/01/28 10:21:58;;;;;;;;;;;3.70;99.90;;;;;;5061730;28;20278;-68
2023/01/28 10:24:28;;;;;;;;;;;3.60;99.90;;;;;;5066358;28;19909;-68
2023/01/28 10:26:55;;;;;;;;;;;3.70;99.90;;;;;;5071050;28;19969;-68
2023/01/28 10:29:23;;;;;;;;;;;3.80;99.90;;;;;;5065438;28;19908;-68
2023/01/28 10:32:10;;;;;;;;;;;3.80;99.90;;;;;;5069954;28;19921;-68
2023/01/28 10:34:36;;;;;;;;;;;3.90;99.90;;;;;;5068976;28;19914;-76
2023/01/28 10:37:01;;;;;;;;;;;3.90;99.90;;;;;;5073973;28;20382;-68
2023/01/28 10:39:27;;;;;;;;;;;4.00;99.90;;;;;;5070023;28;19981;-68
2023/01/28 10:41:52;;;;;;;;;;;4.10;99.90;;;;;;5070476;28;19912;-68
2023/01/28 10:44:33;;;;;;;;;;;4.40;99.90;;;;;;5071088;28;19916;-68
2023/01/28 10:47:02;;;;;;;;;;;4.70;99.90;;;;;;5070440;28;19962;-68
2023/01/28 10:49:29;;;;;;;;;;;4.80;99.90;;;;;;5067981;28;20783;-67
2023/01/28 10:51:54;;;;;;;;;;;4.60;99.90;;;;;;5076544;28;19939;-68
2023/01/28 10:54:20;;;;;;;;;;;4.90;99.90;;;;;;5077161;28;19939;-68
2023/01/28 10:56:46;;;;;;;;;;;4.90;99.90;;;;;;5077570;28;20187;-68
2023/01/28 10:59:19;;;;;;;;;;;4.90;99.90;;;;;;5073974;28;19935;-68
2023/01/28 11:01:45;;;;;;;;;;;5.00;99.90;;;;;;5077363;28;20027;-68
2023/01/28 11:04:18;;;;;;;;;;;5.00;99.90;;;;;;5074727;28;20426;-80
2023/01/28 11:06:51;;;;;;;;;;;4.90;99.90;;;;;;5074330;28;19962;-68
2023/01/28 11:09:27;;;;;;;;;;;4.80;99.90;;;;;;5063087;28;20334;-68
2023/01/28 11:11:53;;;;;;;;;;;4.90;99.90;;;;;;5068535;28;20003;-68
2023/01/28 11:14:23;;;;;;;;;;;4.90;99.90;;;;;;5069886;28;19991;-68
2023/01/28 11:16:49;;;;;;;;;;;5.10;99.90;;;;;;5072258;28;19908;-68
2023/01/28 11:19:17;;;;;;;;;;;5.30;99.90;;;;;;5069058;28;20287;-67
2023/01/28 11:21:47;;;;;;;;;;;5.30;99.90;;;;;;5061055;28;21438;-68
2023/01/28 11:24:14;;;;;;;;;;;5.40;99.90;;;;;;5070145;28;19912;-68
2023/01/28 11:26:44;;;;;;;;;;;5.50;99.90;;;;;;5076700;28;19916;-68
2023/01/28 11:29:28;;;;;;;;;;;5.50;99.90;;;;;;5074244;28;19923;-69
2023/01/28 11:31:54;;;;;;;;;;;5.70;99.90;;;;;;5060608;28;19912;-68
2023/01/28 11:34:23;;;;;;;;;;;5.80;99.90;;;;;;5077083;28;19915;-73
2023/01/28 11:36:51;;;;;;;;;;;5.80;99.90;;;;;;5064368;28;19917;-69
2023/01/28 11:39:24;;;;;;;;;;;5.90;99.90;;;;;;5067477;28;20261;-68
2023/01/28 11:41:51;;;;;;;;;;;6.10;99.90;;;;;;5070012;28;19908;-69
2023/01/28 11:44:16;;;;;;;;;;;6.20;99.90;;;;;;5072755;28;19909;-68
2023/01/28 11:46:57;;;;;;;;;;;6.20;99.90;;;;;;5076157;28;20115;-69
2023/01/28 11:49:25;;;;;;;;;;;6.30;99.90;;;;;;5066583;28;19959;-69
2023/01/28 11:52:08;;;;;;;;;;;6.30;99.90;;;;;;5075165;28;19908;-83
2023/01/28 11:54:41;;;;;;;;;;;6.20;99.90;;;;;;5068924;28;19915;-69
2023/01/28 11:57:07;;;;;;;;;;;6.30;99.90;;;;;;5071816;28;20200;-69
2023/01/28 11:59:51;;;;;;;;;;;6.40;99.90;;;;;;5068908;28;19912;-76
2023/01/28 12:02:29;;;;;;;;;;;6.50;99.90;;;;;;5071657;28;19927;-69
2023/01/28 12:05:02;;;;;;;;;;;6.60;99.90;;;;;;5071161;28;19958;-74
2023/01/28 12:07:28;;;;;;;;;;;6.70;99.90;;;;;;5075076;28;20214;-69
2023/01/28 12:10:02;;;;;;;;;;;6.70;99.90;;;;;;5072152;28;19908;-68
2023/01/28 12:12:37;;;;;;;;;;;6.50;99.90;;;;;;5074036;28;20306;-70
2023/01/28 12:15:21;;;;;;;;;;;6.40;99.90;;;;;;5068264;28;20191;-69
2023/01/28 12:17:59;;;;;;;;;;;6.50;99.90;;;;;;5070179;28;19978;-69
2023/01/28 12:20:30;;;;;;;;;;;6.70;99.90;;;;;;5075262;28;19931;-68
2023/01/28 12:23:02;;;;;;;;;;;6.80;99.90;;;;;;5073310;28;19909;-68
2023/01/28 12:25:37;;;;;;;;;;;6.90;99.90;;;;;;5069599;28;19915;-69
2023/01/28 12:28:22;;;;;;;;;;;7.00;99.90;;;;;;5069376;28;19921;-69
2023/01/28 12:31:23;;;;;;;;;;;7.00;99.90;;;;;;5066136;28;19948;-70
2023/01/28 12:33:51;;;;;;;;;;;6.90;99.90;;;;;;5013509;28;19952;-69
2023/01/28 12:36:29;;;;;;;;;;;7.00;99.90;;;;;;5048837;28;19913;-68
2023/01/28 12:39:01;;;;;;;;;;;7.10;99.90;;;;;;5068099;28;19909;-68
2023/01/28 12:41:41;;;;;;;;;;;7.20;99.90;;;;;;5067764;28;19904;-68
2023/01/28 12:44:16;;;;;;;;;;;7.40;99.90;;;;;;5063584;28;20434;-69
2023/01/28 12:46:42;;;;;;;;;;;7.60;99.90;;;;;;5074875;28;20280;-69
2023/01/28 12:49:13;;;;;;;;;;;7.80;99.90;;;;;;5061206;28;19947;-69
2023/01/28 12:51:49;;;;;;;;;;;7.90;99.90;;;;;;5062684;28;19995;-69
2023/01/28 12:54:17;;;;;;;;;;;7.90;99.90;;;;;;5070985;28;19908;-69
2023/01/28 12:56:46;;;;;;;;;;;7.70;99.90;;;;;;5071539;28;19987;-76
2023/01/28 12:59:21;;;;;;;;;;;7.50;99.90;;;;;;5065965;28;19916;-69
2023/01/28 13:01:49;;;;;;;;;;;7.30;99.90;;;;;;5049836;28;19923;-69
2023/01/28 13:04:14;;;;;;;;;;;7.10;99.90;;;;;;5053021;28;20303;-69
2023/01/28 13:06:43;;;;;;;;;;;6.90;99.90;;;;;;5037580;28;19916;-69
2023/01/28 13:09:19;;;;;;;;;;;7.00;99.90;;;;;;5052661;28;19909;-68
2023/01/28 13:11:45;;;;;;;;;;;7.10;99.90;;;;;;5047674;28;19915;-69
2023/01/28 13:14:11;;;;;;;;;;;7.10;99.90;;;;;;5054038;28;19913;-69
2023/01/28 13:16:37;;;;;;;;;;;7.20;99.90;;;;;;5038751;28;19951;-71
2023/01/28 13:19:04;;;;;;;;;;;7.20;99.90;;;;;;5033441;28;20307;-69
2023/01/28 13:21:31;;;;;;;;;;;7.20;99.90;;;;;;5049632;28;20193;-69
2023/01/28 13:24:00;;;;;;;;;;;7.20;99.90;;;;;;5044511;28;20267;-73
2023/01/28 13:26:26;;;;;;;;;;;7.20;99.90;;;;;;5047255;28;19916;-76
2023/01/28 13:28:52;;;;;;;;;;;7.20;99.90;;;;;;5047139;28;19989;-69
2023/01/28 13:31:18;;;;;;;;;;;7.30;99.90;;;;;;5036667;28;20231;-69
2023/01/28 13:33:59;;;;;;;;;;;7.30;99.90;;;;;;5048834;28;20257;-69
2023/01/28 13:36:30;;;;;;;;;;;7.40;99.90;;;;;;5042326;28;20204;-69
2023/01/28 13:39:18;;;;;;;;;;;7.50;99.90;;;;;;5049130;28;21222;-69
2023/01/28 13:41:45;;;;;;;;;;;7.50;99.90;;;;;;5046087;28;19909;-69
2023/01/28 13:44:25;;;;;;;;;;;7.50;99.90;;;;;;5046310;28;19923;-69
2023/01/28 13:46:52;;;;;;;;;;;7.60;99.90;;;;;;5036889;28;19908;-69
2023/01/28 13:49:20;;;;;;;;;;;7.50;99.90;;;;;;5026658;28;20300;-69
2023/01/28 13:52:15;;;;;;;;;;;7.40;99.90;;;;;;5036832;28;19917;-69
2023/01/28 13:54:43;;;;;;;;;;;7.20;99.90;;;;;;5024764;28;19948;-82
2023/01/28 13:57:22;;;;;;;;;;;7.00;99.90;;;;;;5047493;28;19908;-68
2023/01/28 14:00:01;;;;;;;;;;;7.00;99.90;;;;;;5048543;28;19912;-68
2023/01/28 14:02:35;;;;;;;;;;;6.90;99.90;;;;;;5070442;28;19924;-82
2023/01/28 14:05:16;;;;;;;;;;;7.00;99.90;;;;;;5069677;28;19908;-68
2023/01/28 14:07:47;;;;;;;;;;;6.80;99.90;;;;;;5069051;28;19912;-69
2023/01/28 14:10:51;;;;;;;;;;;6.70;99.90;;;;;;5070050;28;19919;-69
2023/01/28 14:13:26;;;;;;;;;;;6.70;99.90;;;;;;5007775;28;19913;-69
2023/01/28 14:16:09;;;;;;;;;;;6.70;99.90;;;;;;5009969;28;19957;-69
2023/01/28 14:18:37;;;;;;;;;;;6.70;99.90;;;;;;5042211;28;19916;-68
2023/01/28 14:21:08;;;;;;;;;;;6.70;99.90;;;;;;5064343;28;19935;-69
2023/01/28 14:23:35;;;;;;;;;;;6.50;99.90;;;;;;5061675;28;19923;-71
2023/01/28 14:26:15;;;;;;;;;;;6.40;99.90;;;;;;5065861;28;19915;-69
2023/01/28 14:28:55;;;;;;;;;;;6.20;99.90;;;;;;5069759;28;19909;-69
2023/01/28 14:31:23;;;;;;;;;;;6.00;99.90;;;;;;5062112;28;19909;-68
2023/01/28 14:33:49;;;;;;;;;;;5.90;99.90;;;;;;5068191;28;19917;-69
2023/01/28 14:36:15;;;;;;;;;;;5.70;99.90;;;;;;5067797;28;19904;-78
2023/01/28 14:38:41;;;;;;;;;;;5.70;99.90;;;;;;5062577;28;19910;-68
2023/01/28 14:41:07;;;;;;;;;;;5.80;99.90;;;;;;5068139;28;20219;-68
2023/01/28 14:43:35;;;;;;;;;;;5.90;99.90;;;;;;5068722;28;19916;-69
2023/01/28 14:46:09;;;;;;;;;;;5.90;99.90;;;;;;5061501;28;20447;-69
2023/01/28 14:48:37;;;;;;;;;;;5.90;99.90;;;;;;5072778;28;19908;-69
2023/01/28 14:51:31;;;;;;;;;;;5.90;99.90;;;;;;5067388;28;19961;-76
2023/01/28 14:54:18;;;;;;;;;;;5.90;99.90;;;;;;5067256;28;19912;-69
2023/01/28 14:56:47;;;;;;;;;;;5.80;99.90;;;;;;5053868;28;19962;-70
2023/01/28 14:59:12;;;;;;;;;;;5.70;99.90;;;;;;5062424;28;21605;-68
2023/01/28 15:01:42;;;;;;;;;;;5.60;99.90;;;;;;5068280;28;20042;-68
2023/01/28 15:04:20;;;;;;;;;;;5.50;99.90;;;;;;5056205;28;20007;-69
2023/01/28 15:06:45;;;;;;;;;;;5.30;99.90;;;;;;5066375;28;19912;-69
2023/01/28 15:09:12;;;;;;;;;;;5.20;99.90;;;;;;5063472;28;19936;-77